sensor_id;sensor_type;location;lat;lon;timestamp;P1;durP1;ratioP1;P2;durP2;ratioP2
67456;SDS011;54319;52.038;4.640;2024-03-23T00:53:52;16.02;;;4.22;;
67456;SDS011;54319;52.038;4.640;2024-03-23T00:56:19;17.98;;;4.93;;
67456;SDS011;54319;52.038;4.640;2024-03-23T00:58:44;15.93;;;4.55;;
67456;SDS011;54319;52.038;4.640;2024-03-23T01:01:11;18.52;;;4.65;;
67456;SDS011;54319;52.038;4.640;2024-03-23T01:03:37;11.48;;;4.03;;
67456;SDS011;54319;52.038;4.640;2024-03-23T01:06:04;17.83;;;5.18;;
67456;SDS011;54319;52.038;4.640;2024-03-23T01:08:30;21.50;;;4.45;;
67456;SDS011;54319;52.038;4.640;2024-03-23T01:10:58;12.38;;;4.05;;
67456;SDS011;54319;52.038;4.640;2024-03-23T01:13:25;16.95;;;4.15;;
67456;SDS011;54319;52.038;4.640;2024-03-23T01:15:53;14.02;;;3.83;;
67456;SDS011;54319;52.038;4.640;2024-03-23T01:18:21;18.27;;;4.20;;
67456;SDS011;54319;52.038;4.640;2024-03-23T01:20:48;15.68;;;3.60;;
67456;SDS011;54319;52.038;4.640;2024-03-23T01:23:16;13.48;;;3.58;;
67456;SDS011;54319;52.038;4.640;2024-03-23T01:25:42;18.08;;;4.18;;
67456;SDS011;54319;52.038;4.640;2024-03-23T01:28:17;14.98;;;3.92;;
67456;SDS011;54319;52.038;4.640;2024-03-23T01:30:44;11.65;;;3.78;;
67456;SDS011;54319;52.038;4.640;2024-03-23T01:33:10;14.93;;;4.05;;
67456;SDS011;54319;52.038;4.640;2024-03-23T01:35:37;11.82;;;3.60;;
67456;SDS011;54319;52.038;4.640;2024-03-23T01:38:03;13.15;;;3.20;;
67456;SDS011;54319;52.038;4.640;2024-03-23T01:40:31;11.55;;;2.72;;
67456;SDS011;54319;52.038;4.640;2024-03-23T01:42:57;16.38;;;3.13;;
67456;SDS011;54319;52.038;4.640;2024-03-23T01:45:26;11.07;;;2.95;;
67456;SDS011;54319;52.038;4.640;2024-03-23T01:47:53;12.75;;;2.90;;
67456;SDS011;54319;52.038;4.640;2024-03-23T01:50:19;9.30;;;2.65;;
67456;SDS011;54319;52.038;4.640;2024-03-23T01:52:46;8.27;;;2.20;;
67456;SDS011;54319;52.038;4.640;2024-03-23T01:55:13;12.45;;;2.75;;
67456;SDS011;54319;52.038;4.640;2024-03-23T01:57:38;7.95;;;2.00;;
67456;SDS011;54319;52.038;4.640;2024-03-23T02:00:05;10.55;;;2.05;;
67456;SDS011;54319;52.038;4.640;2024-03-23T02:02:33;11.40;;;1.90;;
67456;SDS011;54319;52.038;4.640;2024-03-23T02:04:59;12.18;;;2.08;;
67456;SDS011;54319;52.038;4.640;2024-03-23T02:07:25;6.70;;;1.65;;
67456;SDS011;54319;52.038;4.640;2024-03-23T02:09:52;12.57;;;1.90;;
67456;SDS011;54319;52.038;4.640;2024-03-23T02:12:19;11.32;;;1.90;;
67456;SDS011;54319;52.038;4.640;2024-03-23T02:14:46;8.90;;;1.92;;
67456;SDS011;54319;52.038;4.640;2024-03-23T02:17:12;11.80;;;2.00;;
67456;SDS011;54319;52.038;4.640;2024-03-23T02:19:40;6.40;;;1.85;;
67456;SDS011;54319;52.038;4.640;2024-03-23T02:22:06;7.57;;;1.85;;
67456;SDS011;54319;52.038;4.640;2024-03-23T02:24:36;10.70;;;2.08;;
67456;SDS011;54319;52.038;4.640;2024-03-23T02:27:02;7.63;;;1.90;;
67456;SDS011;54319;52.038;4.640;2024-03-23T02:29:31;7.68;;;1.77;;
67456;SDS011;54319;52.038;4.640;2024-03-23T02:31:56;9.30;;;1.63;;
67456;SDS011;54319;52.038;4.640;2024-03-23T02:34:23;8.35;;;2.50;;
67456;SDS011;54319;52.038;4.640;2024-03-23T02:36:49;10.13;;;2.03;;
67456;SDS011;54319;52.038;4.640;2024-03-23T02:39:16;6.57;;;1.75;;
67456;SDS011;54319;52.038;4.640;2024-03-23T02:41:43;13.85;;;2.40;;
67456;SDS011;54319;52.038;4.640;2024-03-23T02:44:09;6.47;;;1.95;;
67456;SDS011;54319;52.038;4.640;2024-03-23T02:46:36;10.98;;;1.88;;
67456;SDS011;54319;52.038;4.640;2024-03-23T02:49:03;9.13;;;2.17;;
67456;SDS011;54319;52.038;4.640;2024-03-23T02:51:29;11.80;;;2.20;;
67456;SDS011;54319;52.038;4.640;2024-03-23T02:53:56;5.77;;;1.67;;
67456;SDS011;54319;52.038;4.640;2024-03-23T02:56:22;6.53;;;2.25;;
67456;SDS011;54319;52.038;4.640;2024-03-23T02:58:50;5.50;;;1.92;;
67456;SDS011;54319;52.038;4.640;2024-03-23T03:01:16;9.20;;;1.88;;
67456;SDS011;54319;52.038;4.640;2024-03-23T03:03:42;8.40;;;1.70;;
67456;SDS011;54319;52.038;4.640;2024-03-23T03:06:09;6.35;;;1.73;;
67456;SDS011;54319;52.038;4.640;2024-03-23T03:08:35;13.13;;;2.00;;
67456;SDS011;54319;52.038;4.640;2024-03-23T03:11:01;11.25;;;1.88;;
67456;SDS011;54319;52.038;4.640;2024-03-23T03:13:28;11.35;;;1.90;;
67456;SDS011;54319;52.038;4.640;2024-03-23T03:15:55;8.27;;;2.38;;
67456;SDS011;54319;52.038;4.640;2024-03-23T03:18:23;8.98;;;1.77;;
67456;SDS011;54319;52.038;4.640;2024-03-23T03:20:49;10.52;;;2.17;;
67456;SDS011;54319;52.038;4.640;2024-03-23T03:23:17;11.13;;;2.22;;
67456;SDS011;54319;52.038;4.640;2024-03-23T03:25:44;7.70;;;2.25;;
67456;SDS011;54319;52.038;4.640;2024-03-23T03:28:11;5.55;;;2.00;;
67456;SDS011;54319;52.038;4.640;2024-03-23T03:30:37;7.95;;;1.73;;
67456;SDS011;54319;52.038;4.640;2024-03-23T03:33:05;10.32;;;2.22;;
67456;SDS011;54319;52.038;4.640;2024-03-23T03:35:31;8.88;;;2.17;;
67456;SDS011;54319;52.038;4.640;2024-03-23T03:37:57;14.50;;;3.35;;
67456;SDS011;54319;52.038;4.640;2024-03-23T03:40:23;7.00;;;1.58;;
67456;SDS011;54319;52.038;4.640;2024-03-23T03:42:50;8.93;;;2.20;;
67456;SDS011;54319;52.038;4.640;2024-03-23T03:45:16;9.00;;;2.00;;
67456;SDS011;54319;52.038;4.640;2024-03-23T03:47:42;9.70;;;1.70;;
67456;SDS011;54319;52.038;4.640;2024-03-23T03:50:11;11.23;;;2.25;;
67456;SDS011;54319;52.038;4.640;2024-03-23T03:52:37;6.30;;;1.80;;
67456;SDS011;54319;52.038;4.640;2024-03-23T03:55:03;11.15;;;1.92;;
67456;SDS011;54319;52.038;4.640;2024-03-23T03:57:40;16.45;;;2.75;;
67456;SDS011;54319;52.038;4.640;2024-03-23T04:00:06;7.55;;;1.70;;
67456;SDS011;54319;52.038;4.640;2024-03-23T04:02:36;7.57;;;1.83;;
67456;SDS011;54319;52.038;4.640;2024-03-23T04:05:01;12.13;;;2.13;;
67456;SDS011;54319;52.038;4.640;2024-03-23T04:07:30;10.52;;;1.75;;
67456;SDS011;54319;52.038;4.640;2024-03-23T04:09:56;6.03;;;1.42;;
67456;SDS011;54319;52.038;4.640;2024-03-23T04:12:23;8.18;;;1.73;;
67456;SDS011;54319;52.038;4.640;2024-03-23T04:14:48;9.07;;;2.30;;
67456;SDS011;54319;52.038;4.640;2024-03-23T04:17:16;10.25;;;1.80;;
67456;SDS011;54319;52.038;4.640;2024-03-23T04:19:42;5.68;;;1.90;;
67456;SDS011;54319;52.038;4.640;2024-03-23T04:22:10;8.43;;;1.70;;
67456;SDS011;54319;52.038;4.640;2024-03-23T04:24:37;4.50;;;1.77;;
67456;SDS011;54319;52.038;4.640;2024-03-23T04:27:03;5.82;;;1.70;;
67456;SDS011;54319;52.038;4.640;2024-03-23T04:29:29;8.60;;;1.65;;
67456;SDS011;54319;52.038;4.640;2024-03-23T04:31:56;9.33;;;2.00;;
67456;SDS011;54319;52.038;4.640;2024-03-23T04:34:21;8.32;;;1.95;;
67456;SDS011;54319;52.038;4.640;2024-03-23T04:36:49;7.63;;;1.63;;
67456;SDS011;54319;52.038;4.640;2024-03-23T04:39:14;7.78;;;1.77;;
67456;SDS011;54319;52.038;4.640;2024-03-23T04:41:47;8.25;;;2.67;;
67456;SDS011;54319;52.038;4.640;2024-03-23T04:44:13;10.85;;;2.00;;
67456;SDS011;54319;52.038;4.640;2024-03-23T04:46:40;5.95;;;2.17;;
67456;SDS011;54319;52.038;4.640;2024-03-23T04:49:07;4.60;;;1.90;;
67456;SDS011;54319;52.038;4.640;2024-03-23T04:51:35;5.35;;;1.95;;
67456;SDS011;54319;52.038;4.640;2024-03-23T04:54:02;7.22;;;1.80;;
67456;SDS011;54319;52.038;4.640;2024-03-23T04:56:29;6.00;;;2.03;;
67456;SDS011;54319;52.038;4.640;2024-03-23T04:58:58;7.93;;;2.33;;
67456;SDS011;54319;52.038;4.640;2024-03-23T05:01:27;9.50;;;2.15;;
67456;SDS011;54319;52.038;4.640;2024-03-23T05:03:53;4.13;;;1.60;;
67456;SDS011;54319;52.038;4.640;2024-03-23T05:06:19;8.23;;;1.70;;
67456;SDS011;54319;52.038;4.640;2024-03-23T05:08:46;5.47;;;1.63;;
67456;SDS011;54319;52.038;4.640;2024-03-23T05:11:11;8.88;;;2.03;;
67456;SDS011;54319;52.038;4.640;2024-03-23T05:13:38;7.85;;;1.88;;
67456;SDS011;54319;52.038;4.640;2024-03-23T05:16:05;8.23;;;2.00;;
67456;SDS011;54319;52.038;4.640;2024-03-23T05:18:33;9.40;;;2.45;;
67456;SDS011;54319;52.038;4.640;2024-03-23T05:20:59;11.43;;;3.03;;
67456;SDS011;54319;52.038;4.640;2024-03-23T05:23:26;12.43;;;2.47;;
67456;SDS011;54319;52.038;4.640;2024-03-23T05:25:53;11.43;;;2.28;;
67456;SDS011;54319;52.038;4.640;2024-03-23T05:28:19;5.85;;;2.40;;
67456;SDS011;54319;52.038;4.640;2024-03-23T05:30:49;10.18;;;2.20;;
67456;SDS011;54319;52.038;4.640;2024-03-23T05:33:18;8.38;;;2.67;;
67456;SDS011;54319;52.038;4.640;2024-03-23T05:35:44;10.40;;;2.40;;
67456;SDS011;54319;52.038;4.640;2024-03-23T05:38:12;8.98;;;2.15;;
67456;SDS011;54319;52.038;4.640;2024-03-23T05:40:38;9.30;;;2.42;;
67456;SDS011;54319;52.038;4.640;2024-03-23T05:43:05;7.15;;;2.25;;
67456;SDS011;54319;52.038;4.640;2024-03-23T05:45:31;6.75;;;2.00;;
67456;SDS011;54319;52.038;4.640;2024-03-23T05:47:59;6.07;;;2.03;;
67456;SDS011;54319;52.038;4.640;2024-03-23T05:50:26;14.80;;;2.38;;
67456;SDS011;54319;52.038;4.640;2024-03-23T05:52:53;8.02;;;2.15;;
67456;SDS011;54319;52.038;4.640;2024-03-23T05:55:18;8.65;;;2.13;;
67456;SDS011;54319;52.038;4.640;2024-03-23T05:57:45;7.35;;;2.05;;
67456;SDS011;54319;52.038;4.640;2024-03-23T06:00:11;11.05;;;2.70;;
67456;SDS011;54319;52.038;4.640;2024-03-23T06:02:42;6.40;;;2.22;;
67456;SDS011;54319;52.038;4.640;2024-03-23T06:05:09;8.93;;;2.28;;
67456;SDS011;54319;52.038;4.640;2024-03-23T06:07:37;10.83;;;2.57;;
67456;SDS011;54319;52.038;4.640;2024-03-23T06:10:03;11.48;;;2.42;;
67456;SDS011;54319;52.038;4.640;2024-03-23T06:12:31;7.28;;;2.05;;
67456;SDS011;54319;52.038;4.640;2024-03-23T06:14:57;10.20;;;2.20;;
67456;SDS011;54319;52.038;4.640;2024-03-23T06:17:24;12.50;;;2.88;;
67456;SDS011;54319;52.038;4.640;2024-03-23T06:19:49;7.20;;;1.85;;
67456;SDS011;54319;52.038;4.640;2024-03-23T06:22:16;13.05;;;2.47;;
67456;SDS011;54319;52.038;4.640;2024-03-23T06:24:43;7.55;;;2.22;;
67456;SDS011;54319;52.038;4.640;2024-03-23T06:27:10;8.98;;;2.45;;
67456;SDS011;54319;52.038;4.640;2024-03-23T06:29:36;8.73;;;2.33;;
67456;SDS011;54319;52.038;4.640;2024-03-23T06:32:03;9.32;;;2.15;;
67456;SDS011;54319;52.038;4.640;2024-03-23T06:34:28;8.13;;;1.70;;
67456;SDS011;54319;52.038;4.640;2024-03-23T06:36:55;9.60;;;2.30;;
67456;SDS011;54319;52.038;4.640;2024-03-23T06:39:21;10.20;;;2.13;;
67456;SDS011;54319;52.038;4.640;2024-03-23T06:41:52;6.35;;;2.33;;
67456;SDS011;54319;52.038;4.640;2024-03-23T06:44:19;5.32;;;2.05;;
67456;SDS011;54319;52.038;4.640;2024-03-23T06:46:45;5.68;;;1.92;;
67456;SDS011;54319;52.038;4.640;2024-03-23T06:49:11;7.82;;;1.80;;
67456;SDS011;54319;52.038;4.640;2024-03-23T06:51:40;5.85;;;2.35;;
67456;SDS011;54319;52.038;4.640;2024-03-23T06:54:06;5.00;;;1.60;;
67456;SDS011;54319;52.038;4.640;2024-03-23T06:56:33;5.47;;;1.90;;
67456;SDS011;54319;52.038;4.640;2024-03-23T06:59:00;8.85;;;2.47;;
67456;SDS011;54319;52.038;4.640;2024-03-23T07:01:28;11.75;;;2.17;;
67456;SDS011;54319;52.038;4.640;2024-03-23T07:03:54;12.30;;;1.95;;
67456;SDS011;54319;52.038;4.640;2024-03-23T07:06:21;13.40;;;2.40;;
67456;SDS011;54319;52.038;4.640;2024-03-23T07:08:47;7.07;;;1.70;;
67456;SDS011;54319;52.038;4.640;2024-03-23T07:11:18;7.50;;;1.65;;
67456;SDS011;54319;52.038;4.640;2024-03-23T07:13:44;6.47;;;1.83;;
67456;SDS011;54319;52.038;4.640;2024-03-23T07:16:14;13.23;;;2.40;;
67456;SDS011;54319;52.038;4.640;2024-03-23T07:18:39;10.13;;;2.00;;
67456;SDS011;54319;52.038;4.640;2024-03-23T07:21:06;6.97;;;2.20;;
67456;SDS011;54319;52.038;4.640;2024-03-23T07:23:32;8.98;;;2.08;;
67456;SDS011;54319;52.038;4.640;2024-03-23T07:25:59;10.00;;;1.98;;
67456;SDS011;54319;52.038;4.640;2024-03-23T07:28:25;8.85;;;1.95;;
67456;SDS011;54319;52.038;4.640;2024-03-23T07:31:03;9.90;;;2.22;;
67456;SDS011;54319;52.038;4.640;2024-03-23T07:33:31;5.55;;;2.13;;
67456;SDS011;54319;52.038;4.640;2024-03-23T07:35:58;8.90;;;1.90;;
67456;SDS011;54319;52.038;4.640;2024-03-23T07:38:25;10.52;;;1.90;;
67456;SDS011;54319;52.038;4.640;2024-03-23T07:41:02;9.98;;;1.95;;
67456;SDS011;54319;52.038;4.640;2024-03-23T07:43:29;10.07;;;2.13;;
67456;SDS011;54319;52.038;4.640;2024-03-23T07:45:54;6.72;;;1.70;;
67456;SDS011;54319;52.038;4.640;2024-03-23T07:48:21;10.70;;;1.97;;
67456;SDS011;54319;52.038;4.640;2024-03-23T07:50:56;5.60;;;1.77;;
67456;SDS011;54319;52.038;4.640;2024-03-23T07:53:24;5.78;;;1.50;;
67456;SDS011;54319;52.038;4.640;2024-03-23T07:55:52;7.75;;;1.77;;
67456;SDS011;54319;52.038;4.640;2024-03-23T07:58:20;7.40;;;1.98;;
67456;SDS011;54319;52.038;4.640;2024-03-23T08:00:46;10.90;;;2.00;;
67456;SDS011;54319;52.038;4.640;2024-03-23T08:03:12;9.53;;;1.97;;
67456;SDS011;54319;52.038;4.640;2024-03-23T08:05:39;8.45;;;1.90;;
67456;SDS011;54319;52.038;4.640;2024-03-23T08:08:09;5.18;;;1.65;;
67456;SDS011;54319;52.038;4.640;2024-03-23T08:10:34;6.50;;;1.70;;
67456;SDS011;54319;52.038;4.640;2024-03-23T08:13:01;7.18;;;1.98;;
67456;SDS011;54319;52.038;4.640;2024-03-23T08:15:27;11.88;;;2.08;;
67456;SDS011;54319;52.038;4.640;2024-03-23T08:17:58;5.70;;;1.50;;
67456;SDS011;54319;52.038;4.640;2024-03-23T08:20:24;6.50;;;1.52;;
67456;SDS011;54319;52.038;4.640;2024-03-23T08:22:50;9.48;;;2.30;;
67456;SDS011;54319;52.038;4.640;2024-03-23T08:25:18;6.40;;;1.77;;
67456;SDS011;54319;52.038;4.640;2024-03-23T08:27:44;9.95;;;2.22;;
67456;SDS011;54319;52.038;4.640;2024-03-23T08:30:12;6.95;;;1.80;;
67456;SDS011;54319;52.038;4.640;2024-03-23T08:32:38;13.50;;;2.78;;
67456;SDS011;54319;52.038;4.640;2024-03-23T08:35:05;9.50;;;2.17;;
67456;SDS011;54319;52.038;4.640;2024-03-23T08:37:32;5.95;;;1.45;;
67456;SDS011;54319;52.038;4.640;2024-03-23T08:39:58;11.90;;;2.22;;
67456;SDS011;54319;52.038;4.640;2024-03-23T08:42:27;8.80;;;2.47;;
67456;SDS011;54319;52.038;4.640;2024-03-23T08:44:54;8.85;;;1.70;;
67456;SDS011;54319;52.038;4.640;2024-03-23T08:47:19;10.68;;;2.38;;
67456;SDS011;54319;52.038;4.640;2024-03-23T08:49:46;14.85;;;2.38;;
67456;SDS011;54319;52.038;4.640;2024-03-23T08:52:12;14.25;;;2.55;;
67456;SDS011;54319;52.038;4.640;2024-03-23T08:54:38;8.65;;;2.33;;
67456;SDS011;54319;52.038;4.640;2024-03-23T08:57:05;11.25;;;2.03;;
67456;SDS011;54319;52.038;4.640;2024-03-23T08:59:33;10.75;;;2.75;;
67456;SDS011;54319;52.038;4.640;2024-03-23T09:02:00;8.77;;;2.33;;
67456;SDS011;54319;52.038;4.640;2024-03-23T09:04:25;11.00;;;1.58;;
67456;SDS011;54319;52.038;4.640;2024-03-23T09:06:52;7.23;;;1.97;;
67456;SDS011;54319;52.038;4.640;2024-03-23T09:09:19;8.13;;;2.00;;
67456;SDS011;54319;52.038;4.640;2024-03-23T09:11:46;8.53;;;2.17;;
67456;SDS011;54319;52.038;4.640;2024-03-23T09:14:12;15.25;;;2.20;;
67456;SDS011;54319;52.038;4.640;2024-03-23T09:16:40;11.27;;;2.22;;
67456;SDS011;54319;52.038;4.640;2024-03-23T09:19:06;7.28;;;1.90;;
67456;SDS011;54319;52.038;4.640;2024-03-23T09:21:33;7.60;;;1.70;;
67456;SDS011;54319;52.038;4.640;2024-03-23T09:23:58;8.32;;;2.20;;
67456;SDS011;54319;52.038;4.640;2024-03-23T09:26:25;9.80;;;2.05;;
67456;SDS011;54319;52.038;4.640;2024-03-23T09:28:50;7.57;;;2.30;;
67456;SDS011;54319;52.038;4.640;2024-03-23T09:31:17;9.88;;;1.90;;
67456;SDS011;54319;52.038;4.640;2024-03-23T09:33:44;7.55;;;1.90;;
67456;SDS011;54319;52.038;4.640;2024-03-23T09:36:11;9.50;;;1.48;;
67456;SDS011;54319;52.038;4.640;2024-03-23T09:38:38;10.13;;;1.90;;
67456;SDS011;54319;52.038;4.640;2024-03-23T09:41:06;6.15;;;1.52;;
67456;SDS011;54319;52.038;4.640;2024-03-23T09:43:33;7.68;;;1.95;;
67456;SDS011;54319;52.038;4.640;2024-03-23T09:46:01;9.32;;;1.80;;
67456;SDS011;54319;52.038;4.640;2024-03-23T09:48:27;7.50;;;1.50;;
67456;SDS011;54319;52.038;4.640;2024-03-23T09:50:55;6.53;;;1.70;;
67456;SDS011;54319;52.038;4.640;2024-03-23T09:53:21;10.82;;;1.77;;
67456;SDS011;54319;52.038;4.640;2024-03-23T09:55:48;10.23;;;2.10;;
67456;SDS011;54319;52.038;4.640;2024-03-23T09:58:15;4.30;;;1.60;;
67456;SDS011;54319;52.038;4.640;2024-03-23T10:00:42;6.55;;;1.70;;
67456;SDS011;54319;52.038;4.640;2024-03-23T10:03:08;7.00;;;1.77;;
67456;SDS011;54319;52.038;4.640;2024-03-23T10:05:36;7.38;;;1.70;;
67456;SDS011;54319;52.038;4.640;2024-03-23T10:08:04;4.97;;;1.75;;
67456;SDS011;54319;52.038;4.640;2024-03-23T10:10:44;9.98;;;2.35;;
67456;SDS011;54319;52.038;4.640;2024-03-23T10:13:14;6.20;;;1.90;;
67456;SDS011;54319;52.038;4.640;2024-03-23T10:15:50;4.45;;;1.58;;
67456;SDS011;54319;52.038;4.640;2024-03-23T10:18:21;16.23;;;2.10;;
67456;SDS011;54319;52.038;4.640;2024-03-23T10:20:50;5.90;;;1.52;;
67456;SDS011;54319;52.038;4.640;2024-03-23T10:23:19;6.78;;;1.90;;
67456;SDS011;54319;52.038;4.640;2024-03-23T10:25:45;7.50;;;3.65;;
67456;SDS011;54319;52.038;4.640;2024-03-23T10:28:11;6.90;;;2.08;;
67456;SDS011;54319;52.038;4.640;2024-03-23T10:30:37;6.15;;;1.90;;
67456;SDS011;54319;52.038;4.640;2024-03-23T10:33:07;12.30;;;2.10;;
67456;SDS011;54319;52.038;4.640;2024-03-23T10:35:34;9.20;;;1.75;;
67456;SDS011;54319;52.038;4.640;2024-03-23T10:38:09;7.97;;;2.15;;
67456;SDS011;54319;52.038;4.640;2024-03-23T10:40:37;8.23;;;1.50;;
67456;SDS011;54319;52.038;4.640;2024-03-23T10:43:04;9.40;;;1.80;;
67456;SDS011;54319;52.038;4.640;2024-03-23T10:45:31;6.88;;;1.55;;
67456;SDS011;54319;52.038;4.640;2024-03-23T10:47:58;11.33;;;1.93;;
67456;SDS011;54319;52.038;4.640;2024-03-23T10:50:24;5.00;;;1.38;;
67456;SDS011;54319;52.038;4.640;2024-03-23T10:52:52;7.85;;;1.90;;
67456;SDS011;54319;52.038;4.640;2024-03-23T10:55:19;4.32;;;1.30;;
67456;SDS011;54319;52.038;4.640;2024-03-23T10:57:50;10.85;;;1.67;;
67456;SDS011;54319;52.038;4.640;2024-03-23T11:00:24;7.38;;;1.70;;
67456;SDS011;54319;52.038;4.640;2024-03-23T11:02:51;7.50;;;1.88;;
67456;SDS011;54319;52.038;4.640;2024-03-23T11:05:28;11.80;;;2.05;;
67456;SDS011;54319;52.038;4.640;2024-03-23T11:07:55;6.53;;;1.80;;
67456;SDS011;54319;52.038;4.640;2024-03-23T11:10:24;6.43;;;1.98;;
67456;SDS011;54319;52.038;4.640;2024-03-23T11:12:54;8.73;;;2.17;;
67456;SDS011;54319;52.038;4.640;2024-03-23T11:15:20;8.70;;;1.60;;
67456;SDS011;54319;52.038;4.640;2024-03-23T11:20:31;9.15;;;2.33;;
67456;SDS011;54319;52.038;4.640;2024-03-23T11:22:58;10.52;;;2.15;;
67456;SDS011;54319;52.038;4.640;2024-03-23T11:25:25;6.72;;;1.70;;
67456;SDS011;54319;52.038;4.640;2024-03-23T11:27:54;5.72;;;1.65;;
67456;SDS011;54319;52.038;4.640;2024-03-23T11:30:22;6.88;;;1.52;;
67456;SDS011;54319;52.038;4.640;2024-03-23T11:32:50;5.47;;;1.73;;
67456;SDS011;54319;52.038;4.640;2024-03-23T11:35:26;3.60;;;1.48;;
67456;SDS011;54319;52.038;4.640;2024-03-23T11:38:02;5.25;;;1.60;;
67456;SDS011;54319;52.038;4.640;2024-03-23T11:40:29;6.97;;;1.65;;
67456;SDS011;54319;52.038;4.640;2024-03-23T11:42:57;9.75;;;1.60;;
67456;SDS011;54319;52.038;4.640;2024-03-23T11:45:23;5.90;;;1.77;;
67456;SDS011;54319;52.038;4.640;2024-03-23T11:48:01;7.47;;;1.90;;
67456;SDS011;54319;52.038;4.640;2024-03-23T11:50:28;5.05;;;1.40;;
67456;SDS011;54319;52.038;4.640;2024-03-23T11:53:06;6.78;;;1.92;;
67456;SDS011;54319;52.038;4.640;2024-03-23T11:55:41;7.82;;;1.95;;
67456;SDS011;54319;52.038;4.640;2024-03-23T11:58:11;5.88;;;1.58;;
67456;SDS011;54319;52.038;4.640;2024-03-23T12:00:37;4.72;;;1.70;;
67456;SDS011;54319;52.038;4.640;2024-03-23T12:03:04;8.90;;;1.77;;
67456;SDS011;54319;52.038;4.640;2024-03-23T12:05:30;8.33;;;1.47;;
67456;SDS011;54319;52.038;4.640;2024-03-23T12:10:38;8.10;;;1.65;;
67456;SDS011;54319;52.038;4.640;2024-03-23T12:13:05;8.53;;;1.67;;
67456;SDS011;54319;52.038;4.640;2024-03-23T12:15:32;7.40;;;1.52;;
67456;SDS011;54319;52.038;4.640;2024-03-23T12:18:08;7.03;;;1.45;;
67456;SDS011;54319;52.038;4.640;2024-03-23T12:20:33;5.82;;;1.42;;
67456;SDS011;54319;52.038;4.640;2024-03-23T12:23:07;7.30;;;1.80;;
67456;SDS011;54319;52.038;4.640;2024-03-23T12:25:34;7.63;;;1.30;;
67456;SDS011;54319;52.038;4.640;2024-03-23T12:28:01;6.78;;;1.63;;
67456;SDS011;54319;52.038;4.640;2024-03-23T12:30:28;6.82;;;1.40;;
67456;SDS011;54319;52.038;4.640;2024-03-23T12:32:56;3.65;;;1.17;;
67456;SDS011;54319;52.038;4.640;2024-03-23T12:35:21;5.13;;;1.20;;
67456;SDS011;54319;52.038;4.640;2024-03-23T12:37:48;6.57;;;2.42;;
67456;SDS011;54319;52.038;4.640;2024-03-23T12:40:14;4.13;;;1.23;;
67456;SDS011;54319;52.038;4.640;2024-03-23T12:42:42;4.90;;;1.40;;
67456;SDS011;54319;52.038;4.640;2024-03-23T12:45:08;5.53;;;1.45;;
67456;SDS011;54319;52.038;4.640;2024-03-23T12:47:35;4.30;;;1.15;;
67456;SDS011;54319;52.038;4.640;2024-03-23T12:50:03;5.15;;;1.45;;
67456;SDS011;54319;52.038;4.640;2024-03-23T12:52:30;4.13;;;1.52;;
67456;SDS011;54319;52.038;4.640;2024-03-23T12:54:57;8.00;;;1.75;;
67456;SDS011;54319;52.038;4.640;2024-03-23T12:57:23;7.30;;;1.95;;
67456;SDS011;54319;52.038;4.640;2024-03-23T12:59:50;6.22;;;1.55;;
67456;SDS011;54319;52.038;4.640;2024-03-23T13:02:16;6.65;;;2.22;;
67456;SDS011;54319;52.038;4.640;2024-03-23T13:04:44;6.13;;;1.58;;
67456;SDS011;54319;52.038;4.640;2024-03-23T13:07:12;5.75;;;1.50;;
67456;SDS011;54319;52.038;4.640;2024-03-23T13:09:39;8.57;;;1.85;;
67456;SDS011;54319;52.038;4.640;2024-03-23T13:12:05;8.40;;;1.77;;
67456;SDS011;54319;52.038;4.640;2024-03-23T13:14:32;6.32;;;1.58;;
67456;SDS011;54319;52.038;4.640;2024-03-23T13:16:58;10.85;;;1.80;;
67456;SDS011;54319;52.038;4.640;2024-03-23T13:19:25;6.33;;;1.53;;
67456;SDS011;54319;52.038;4.640;2024-03-23T13:21:52;7.13;;;1.80;;
67456;SDS011;54319;52.038;4.640;2024-03-23T13:24:22;8.30;;;2.08;;
67456;SDS011;54319;52.038;4.640;2024-03-23T13:26:49;7.97;;;1.80;;
67456;SDS011;54319;52.038;4.640;2024-03-23T13:31:42;5.30;;;1.60;;
67456;SDS011;54319;52.038;4.640;2024-03-23T13:34:09;12.15;;;1.85;;
67456;SDS011;54319;52.038;4.640;2024-03-23T13:36:34;4.20;;;1.38;;
67456;SDS011;54319;52.038;4.640;2024-03-23T13:39:02;6.65;;;1.55;;
67456;SDS011;54319;52.038;4.640;2024-03-23T13:41:37;9.45;;;2.38;;
67456;SDS011;54319;52.038;4.640;2024-03-23T13:44:04;10.15;;;2.08;;
67456;SDS011;54319;52.038;4.640;2024-03-23T13:46:30;3.88;;;1.50;;
67456;SDS011;54319;52.038;4.640;2024-03-23T13:48:56;6.15;;;1.45;;
67456;SDS011;54319;52.038;4.640;2024-03-23T13:51:23;7.55;;;1.80;;
67456;SDS011;54319;52.038;4.640;2024-03-23T13:53:50;6.05;;;1.58;;
67456;SDS011;54319;52.038;4.640;2024-03-23T13:56:17;7.93;;;1.50;;
67456;SDS011;54319;52.038;4.640;2024-03-23T13:58:44;7.25;;;1.65;;
67456;SDS011;54319;52.038;4.640;2024-03-23T14:01:12;6.82;;;1.40;;
67456;SDS011;54319;52.038;4.640;2024-03-23T14:03:39;4.38;;;1.52;;
67456;SDS011;54319;52.038;4.640;2024-03-23T14:08:32;6.43;;;1.23;;
67456;SDS011;54319;52.038;4.640;2024-03-23T14:11:01;3.53;;;1.45;;
67456;SDS011;54319;52.038;4.640;2024-03-23T14:13:28;2.55;;;0.98;;
67456;SDS011;54319;52.038;4.640;2024-03-23T14:15:56;3.42;;;1.05;;
67456;SDS011;54319;52.038;4.640;2024-03-23T14:18:22;4.50;;;1.10;;
67456;SDS011;54319;52.038;4.640;2024-03-23T14:20:48;2.05;;;1.00;;
67456;SDS011;54319;52.038;4.640;2024-03-23T14:23:14;3.70;;;1.30;;
67456;SDS011;54319;52.038;4.640;2024-03-23T14:25:41;5.83;;;1.20;;
67456;SDS011;54319;52.038;4.640;2024-03-23T14:28:07;1.98;;;1.13;;
67456;SDS011;54319;52.038;4.640;2024-03-23T14:30:38;5.13;;;1.25;;
67456;SDS011;54319;52.038;4.640;2024-03-23T14:33:05;4.07;;;0.98;;
67456;SDS011;54319;52.038;4.640;2024-03-23T14:35:32;7.07;;;2.08;;
67456;SDS011;54319;52.038;4.640;2024-03-23T14:37:58;8.93;;;2.47;;
67456;SDS011;54319;52.038;4.640;2024-03-23T14:40:28;13.32;;;2.17;;
67456;SDS011;54319;52.038;4.640;2024-03-23T14:42:53;4.55;;;1.30;;
67456;SDS011;54319;52.038;4.640;2024-03-23T14:45:20;9.10;;;3.95;;
67456;SDS011;54319;52.038;4.640;2024-03-23T14:47:46;11.55;;;4.25;;
67456;SDS011;54319;52.038;4.640;2024-03-23T14:50:15;6.63;;;1.73;;
67456;SDS011;54319;52.038;4.640;2024-03-23T14:52:41;11.30;;;1.92;;
67456;SDS011;54319;52.038;4.640;2024-03-23T14:55:10;11.95;;;2.83;;
67456;SDS011;54319;52.038;4.640;2024-03-23T14:57:36;7.78;;;1.80;;
67456;SDS011;54319;52.038;4.640;2024-03-23T15:00:04;4.45;;;1.55;;
67456;SDS011;54319;52.038;4.640;2024-03-23T15:02:32;14.40;;;2.40;;
67456;SDS011;54319;52.038;4.640;2024-03-23T15:04:59;10.00;;;1.80;;
67456;SDS011;54319;52.038;4.640;2024-03-23T15:07:26;4.13;;;1.52;;
67456;SDS011;54319;52.038;4.640;2024-03-23T15:09:53;8.25;;;1.50;;
67456;SDS011;54319;52.038;4.640;2024-03-23T15:12:19;3.35;;;0.90;;
67456;SDS011;54319;52.038;4.640;2024-03-23T15:14:46;4.90;;;1.90;;
67456;SDS011;54319;52.038;4.640;2024-03-23T15:17:12;3.97;;;1.27;;
67456;SDS011;54319;52.038;4.640;2024-03-23T15:19:39;7.55;;;1.90;;
67456;SDS011;54319;52.038;4.640;2024-03-23T15:22:05;4.97;;;1.25;;
67456;SDS011;54319;52.038;4.640;2024-03-23T15:24:33;12.85;;;2.60;;
67456;SDS011;54319;52.038;4.640;2024-03-23T15:27:00;5.05;;;1.75;;
67456;SDS011;54319;52.038;4.640;2024-03-23T15:29:29;3.08;;;1.15;;
67456;SDS011;54319;52.038;4.640;2024-03-23T15:31:54;4.53;;;1.35;;
67456;SDS011;54319;52.038;4.640;2024-03-23T15:34:23;8.65;;;2.30;;
67456;SDS011;54319;52.038;4.640;2024-03-23T15:36:48;7.78;;;1.55;;
67456;SDS011;54319;52.038;4.640;2024-03-23T15:39:15;7.67;;;1.57;;
67456;SDS011;54319;52.038;4.640;2024-03-23T15:41:44;7.50;;;1.55;;
67456;SDS011;54319;52.038;4.640;2024-03-23T15:44:11;4.85;;;1.50;;
67456;SDS011;54319;52.038;4.640;2024-03-23T15:46:37;4.30;;;1.98;;